createdAt,value
2023-04-14T00:02:28.692Z,6.87
2023-04-14T00:04:58.643Z,6.87
2023-04-14T00:07:28.196Z,6.86
2023-04-14T00:09:58.073Z,6.90
2023-04-14T00:12:27.831Z,6.64
2023-04-14T00:14:58.013Z,6.66
2023-04-14T00:17:27.812Z,6.82
2023-04-14T00:19:57.738Z,6.77
2023-04-14T00:22:27.926Z,6.54
2023-04-14T00:24:58.037Z,6.54
2023-04-14T00:27:30.952Z,6.63
2023-04-14T00:30:00.909Z,6.63
2023-04-14T00:32:30.767Z,6.53
2023-04-14T00:35:03.600Z,6.47
2023-04-14T00:37:33.908Z,6.52
2023-04-14T00:40:03.924Z,6.57
2023-04-14T00:42:33.759Z,6.62
2023-04-14T00:45:03.669Z,6.43
2023-04-14T00:47:34.106Z,6.52
2023-04-14T00:50:04.437Z,6.58
2023-04-14T00:52:34.343Z,6.48
2023-04-14T00:55:07.748Z,6.38
2023-04-14T00:57:37.730Z,6.57
2023-04-14T01:00:08.744Z,6.36
2023-04-14T01:02:38.852Z,6.57
2023-04-14T01:05:09.240Z,6.64
2023-04-14T01:07:39.689Z,6.56
2023-04-14T01:10:12.880Z,6.57
2023-04-14T01:12:45.626Z,6.41
2023-04-14T01:15:40.353Z,6.53
2023-04-14T01:18:14.482Z,6.29
2023-04-14T01:20:47.372Z,6.29
2023-04-14T01:23:28.289Z,6.26
2023-04-14T01:26:20.710Z,6.25
2023-04-14T01:29:05.349Z,6.24
2023-04-14T01:31:41.041Z,6.38
2023-04-14T01:34:16.990Z,6.31
2023-04-14T01:36:52.572Z,6.17
2023-04-14T01:39:25.854Z,6.08
2023-04-14T01:41:59.369Z,6.15
2023-04-14T01:44:31.726Z,6.27
2023-04-14T01:47:07.845Z,6.23
2023-04-14T01:49:40.976Z,6.27
2023-04-14T01:52:14.788Z,6.02
2023-04-14T01:54:46.948Z,6.14
2023-04-14T01:57:20.212Z,6.20
2023-04-14T01:59:52.996Z,5.96
2023-04-14T02:02:24.916Z,5.90
2023-04-14T02:04:57.527Z,5.89
2023-04-14T02:07:29.184Z,5.88
2023-04-14T02:10:01.872Z,5.92
2023-04-14T02:12:32.425Z,5.78
2023-04-14T02:15:02.755Z,5.95
2023-04-14T02:17:33.562Z,5.72
2023-04-14T02:20:03.830Z,5.90
2023-04-14T02:22:34.603Z,5.70
2023-04-14T02:25:05.076Z,5.83
2023-04-14T02:27:40.941Z,5.67
2023-04-14T02:30:15.099Z,5.68
2023-04-14T02:32:49.179Z,5.62
2023-04-14T02:35:22.179Z,5.73
2023-04-14T02:37:55.292Z,5.67
2023-04-14T02:40:34.056Z,5.61
2023-04-14T02:43:09.814Z,5.77
2023-04-14T02:45:42.406Z,5.84
2023-04-14T02:48:15.575Z,5.75
2023-04-14T02:50:48.732Z,5.65
2023-04-14T02:53:23.252Z,5.60
2023-04-14T02:55:54.862Z,5.56
2023-04-14T02:58:24.956Z,5.46
2023-04-14T03:00:55.534Z,5.42
2023-04-14T03:03:27.148Z,5.39
2023-04-14T03:05:57.395Z,5.36
2023-04-14T03:08:28.286Z,5.29
2023-04-14T03:11:01.429Z,5.29
2023-04-14T03:13:34.669Z,5.10
2023-04-14T03:16:07.544Z,5.15
2023-04-14T03:18:38.583Z,5.08
2023-04-14T03:21:08.655Z,5.11
2023-04-14T03:23:39.389Z,5.11
2023-04-14T03:26:14.195Z,5.18
2023-04-14T03:28:46.162Z,5.18
2023-04-14T03:31:19.647Z,5.22
2023-04-14T03:33:55.954Z,5.24
2023-04-14T03:36:28.184Z,5.24
2023-04-14T03:39:01.711Z,5.18
2023-04-14T03:41:37.687Z,5.24
2023-04-14T03:44:13.890Z,5.33
2023-04-14T03:46:44.964Z,5.30
2023-04-14T03:49:18.108Z,5.25
2023-04-14T03:51:53.486Z,5.16
2023-04-14T03:54:27.351Z,5.10
2023-04-14T03:56:58.916Z,5.20
2023-04-14T03:59:30.653Z,5.14
2023-04-14T04:02:02.895Z,5.23
2023-04-14T04:04:34.840Z,5.14
2023-04-14T04:07:05.327Z,5.11
2023-04-14T04:09:37.996Z,5.28
2023-04-14T04:12:10.922Z,5.24
2023-04-14T04:14:41.475Z,5.21
2023-04-14T04:17:15.595Z,5.24
2023-04-14T04:19:47.495Z,5.25
2023-04-14T04:22:20.487Z,5.25
2023-04-14T04:24:52.382Z,5.21
2023-04-14T04:27:28.066Z,5.21
2023-04-14T04:29:56.888Z,5.15
2023-04-14T04:32:27.095Z,5.15
2023-04-14T04:34:58.453Z,5.24
2023-04-14T04:37:30.284Z,5.25
2023-04-14T04:40:00.737Z,5.20
2023-04-14T04:42:30.299Z,5.16
2023-04-14T04:45:00.622Z,4.97
2023-04-14T04:47:30.561Z,4.88
2023-04-14T04:50:00.177Z,4.95
2023-04-14T04:52:29.894Z,4.76
2023-04-14T04:54:59.686Z,4.85
2023-04-14T04:57:29.826Z,5.00
2023-04-14T04:59:59.650Z,5.12
2023-04-14T05:02:29.413Z,5.03
2023-04-14T05:04:59.398Z,5.24
2023-04-14T05:07:29.224Z,5.18
2023-04-14T05:09:59.067Z,5.15
2023-04-14T05:12:28.677Z,5.15
2023-04-14T05:14:58.834Z,5.12
2023-04-14T05:17:28.540Z,5.19
2023-04-14T05:19:58.461Z,5.11
2023-04-14T05:22:28.490Z,5.11
2023-04-14T05:24:58.360Z,4.99
2023-04-14T05:27:27.894Z,5.21
2023-04-14T05:29:57.791Z,5.17
2023-04-14T05:32:29.139Z,5.09
2023-04-14T05:34:59.612Z,5.25
2023-04-14T05:37:30.114Z,5.14
2023-04-14T05:40:00.492Z,5.16
2023-04-14T05:42:30.734Z,5.24
2023-04-14T05:45:00.560Z,5.28
2023-04-14T05:47:30.546Z,5.33
2023-04-14T05:50:01.049Z,5.32
2023-04-14T05:52:31.137Z,5.32
2023-04-14T05:55:01.378Z,5.51
2023-04-14T05:57:31.577Z,5.56
2023-04-14T06:00:01.542Z,5.67
2023-04-14T06:02:33.540Z,5.82
2023-04-14T06:05:05.337Z,5.86
2023-04-14T06:07:35.642Z,5.72
2023-04-14T06:10:08.070Z,5.72
2023-04-14T06:12:38.157Z,5.80
2023-04-14T06:15:08.749Z,5.75
2023-04-14T06:17:39.882Z,6.01
2023-04-14T06:20:11.434Z,6.16
2023-04-14T06:22:42.280Z,6.25
2023-04-14T06:25:12.325Z,6.19
2023-04-14T06:27:42.238Z,6.40
2023-04-14T06:30:12.055Z,6.34
2023-04-14T06:32:41.996Z,6.65
2023-04-14T06:35:16.572Z,6.65
2023-04-14T06:37:43.200Z,6.75
2023-04-14T06:40:14.873Z,6.89
2023-04-14T06:42:44.531Z,7.02
2023-04-14T06:45:14.231Z,7.13
2023-04-14T06:47:44.407Z,7.10
2023-04-14T06:50:15.453Z,7.32
2023-04-14T06:52:45.578Z,7.43
2023-04-14T06:55:15.622Z,7.83
2023-04-14T06:57:45.564Z,8.05
2023-04-14T07:00:16.696Z,8.32
2023-04-14T07:02:46.955Z,8.46
2023-04-14T07:05:18.236Z,8.70
2023-04-14T07:07:48.159Z,9.06
2023-04-14T07:10:18.717Z,8.80
2023-04-14T07:12:48.608Z,8.94
2023-04-14T07:15:18.813Z,8.93
2023-04-14T07:17:48.742Z,9.07
2023-04-14T07:20:20.157Z,9.62
2023-04-14T07:22:49.967Z,9.74
2023-04-14T07:25:20.393Z,9.69
2023-04-14T07:28:02.088Z,9.98
2023-04-14T07:30:21.803Z,10.08
2023-04-14T07:32:52.343Z,10.00
2023-04-14T07:35:22.260Z,10.00
2023-04-14T07:37:52.786Z,10.20
2023-04-14T07:40:22.524Z,10.23
2023-04-14T07:42:52.646Z,10.39
2023-04-14T07:45:22.680Z,10.66
2023-04-14T07:47:52.724Z,11.06
2023-04-14T07:50:23.029Z,11.32
2023-04-14T07:52:53.158Z,11.17
2023-04-14T07:55:23.834Z,11.48
2023-04-14T07:57:54.765Z,11.74
2023-04-14T08:00:24.559Z,12.10
2023-04-14T08:02:54.733Z,12.04
2023-04-14T08:05:24.460Z,12.31
2023-04-14T08:07:54.295Z,12.54
2023-04-14T08:10:24.136Z,12.95
2023-04-14T08:12:54.030Z,13.46
2023-04-14T08:15:24.061Z,13.50
2023-04-14T08:17:54.088Z,13.24
2023-04-14T08:20:24.091Z,13.60
2023-04-14T08:22:54.215Z,14.02
2023-04-14T08:25:24.283Z,13.85
2023-04-14T08:27:54.126Z,13.83
2023-04-14T08:30:24.338Z,13.73
2023-04-14T08:32:59.061Z,13.77
2023-04-14T08:35:37.870Z,13.46
2023-04-14T08:37:59.737Z,13.94
2023-04-14T08:40:35.210Z,13.97
2023-04-14T08:43:05.910Z,13.85
2023-04-14T08:45:36.586Z,13.62
2023-04-14T08:48:07.323Z,13.72
2023-04-14T08:50:49.049Z,13.78
2023-04-14T08:53:21.097Z,13.82
2023-04-14T08:55:52.610Z,14.05
2023-04-14T08:58:22.827Z,13.82
2023-04-14T09:00:53.894Z,13.86
2023-04-14T09:03:24.231Z,13.75
2023-04-14T09:05:54.315Z,13.73
2023-04-14T09:08:24.517Z,13.88
2023-04-14T09:10:55.123Z,14.19
2023-04-14T09:13:28.358Z,14.07
2023-04-14T09:16:00.088Z,14.41
2023-04-14T09:18:31.442Z,14.63
2023-04-14T09:21:30.080Z,14.79
2023-04-14T09:23:35.069Z,14.83
2023-04-14T09:26:06.636Z,14.71
2023-04-14T09:28:37.628Z,14.78
2023-04-14T09:31:08.554Z,15.24
2023-04-14T09:33:47.432Z,15.16
2023-04-14T09:36:22.477Z,15.03
2023-04-14T09:38:53.409Z,14.97
2023-04-14T09:41:26.273Z,14.97
2023-04-14T09:43:56.132Z,15.40
2023-04-14T09:46:26.246Z,15.08
2023-04-14T09:48:57.580Z,15.07
2023-04-14T09:51:32.637Z,15.45
2023-04-14T09:54:06.322Z,15.81
2023-04-14T09:56:36.678Z,16.12
2023-04-14T09:59:07.276Z,16.05
2023-04-14T10:01:37.294Z,16.18
2023-04-14T10:04:08.579Z,16.48
2023-04-14T10:06:41.613Z,15.96
2023-04-14T10:09:14.454Z,15.80
2023-04-14T10:11:44.554Z,15.25
2023-04-14T10:14:15.671Z,15.25
2023-04-14T10:16:45.489Z,15.98
2023-04-14T10:19:15.606Z,16.18
2023-04-14T10:21:45.567Z,16.18
2023-04-14T10:24:17.160Z,15.99
2023-04-14T10:26:48.607Z,16.25
2023-04-14T10:29:19.343Z,16.46
2023-04-14T10:31:58.761Z,16.55
2023-04-14T10:34:30.809Z,16.85
2023-04-14T10:37:16.395Z,16.62
2023-04-14T10:39:49.243Z,16.62
2023-04-14T10:42:18.908Z,16.84
2023-04-14T10:45:08.756Z,16.36
2023-04-14T10:47:41.449Z,16.64
2023-04-14T10:50:21.087Z,16.64
2023-04-14T10:52:56.470Z,16.40
2023-04-14T10:55:28.111Z,16.10
2023-04-14T10:58:07.990Z,16.60
2023-04-14T11:00:41.733Z,16.60
2023-04-14T11:03:13.770Z,16.92
2023-04-14T11:05:46.114Z,17.03
2023-04-14T11:08:18.423Z,17.39
2023-04-14T11:10:51.452Z,17.28
2023-04-14T11:13:21.603Z,17.39
2023-04-14T11:16:05.595Z,17.39
2023-04-14T11:18:45.550Z,17.14
2023-04-14T11:21:17.549Z,17.45
2023-04-14T11:23:49.045Z,17.65
2023-04-14T11:26:18.995Z,17.18
2023-04-14T11:28:49.280Z,16.60
2023-04-14T11:31:21.696Z,16.60
2023-04-14T11:33:51.195Z,17.60
2023-04-14T11:36:21.036Z,17.60
2023-04-14T11:38:51.152Z,18.41
2023-04-14T11:41:22.283Z,18.62
2023-04-14T11:43:52.968Z,18.28
2023-04-14T11:46:23.036Z,18.28
2023-04-14T11:48:57.120Z,18.56
2023-04-14T11:51:34.441Z,18.69
2023-04-14T11:54:04.511Z,18.66
2023-04-14T11:56:34.533Z,18.55
2023-04-14T11:59:06.466Z,18.43
2023-04-14T12:01:36.458Z,18.46
2023-04-14T12:04:06.738Z,17.71
2023-04-14T12:06:39.074Z,17.81
2023-04-14T12:09:10.273Z,18.71
2023-04-14T12:11:40.212Z,18.71
2023-04-14T12:14:10.464Z,19.28
2023-04-14T12:16:40.704Z,19.16
2023-04-14T12:19:10.593Z,19.16
2023-04-14T12:21:43.280Z,19.00
2023-04-14T12:24:13.106Z,19.21
2023-04-14T12:26:44.518Z,19.46
2023-04-14T12:29:14.613Z,19.55
2023-04-14T12:31:46.092Z,19.65
2023-04-14T12:34:17.568Z,19.15
2023-04-14T12:36:53.518Z,18.67
2023-04-14T12:39:26.089Z,19.07
2023-04-14T12:41:59.287Z,18.89
2023-04-14T12:44:29.078Z,18.76
2023-04-14T12:46:58.957Z,18.28
2023-04-14T12:49:39.310Z,18.58
2023-04-14T12:52:09.169Z,18.61
2023-04-14T12:54:55.064Z,18.27
2023-04-14T12:57:25.006Z,17.72
2023-04-14T12:59:54.829Z,17.99
2023-04-14T13:02:24.873Z,18.35
2023-04-14T13:04:54.784Z,18.11
2023-04-14T13:07:24.961Z,18.31
2023-04-14T13:09:54.779Z,18.26
2023-04-14T13:12:24.681Z,18.57
2023-04-14T13:14:54.712Z,18.74
2023-04-14T13:17:25.457Z,18.10
2023-04-14T13:19:55.390Z,17.83
2023-04-14T13:22:25.579Z,18.44
2023-04-14T13:24:57.823Z,18.78
2023-04-14T13:27:27.928Z,18.26
2023-04-14T13:29:57.843Z,18.30
2023-04-14T13:32:27.641Z,18.78
2023-04-14T13:34:57.202Z,18.65
2023-04-14T13:37:27.179Z,18.77
2023-04-14T13:39:57.018Z,19.42
2023-04-14T13:42:26.856Z,18.96
2023-04-14T13:44:56.915Z,18.62
2023-04-14T13:47:28.282Z,18.19
2023-04-14T13:49:58.122Z,19.05
2023-04-14T13:52:27.929Z,19.33
2023-04-14T13:54:57.841Z,19.46
2023-04-14T13:57:27.413Z,19.12
2023-04-14T13:59:59.051Z,18.89
2023-04-14T14:02:32.962Z,18.89
2023-04-14T14:05:03.446Z,18.95
2023-04-14T14:07:33.139Z,19.45
2023-04-14T14:10:07.446Z,19.50
2023-04-14T14:12:37.734Z,18.95
2023-04-14T14:15:08.915Z,19.38
2023-04-14T14:17:38.920Z,19.58
2023-04-14T14:20:09.950Z,19.08
2023-04-14T14:22:40.322Z,19.47
2023-04-14T14:25:18.349Z,19.70
2023-04-14T14:27:42.439Z,19.71
2023-04-14T14:30:14.173Z,19.33
2023-04-14T14:32:44.420Z,19.66
2023-04-14T14:35:14.257Z,19.74
2023-04-14T14:37:45.849Z,19.76
2023-04-14T14:40:17.594Z,19.77
2023-04-14T14:42:47.399Z,19.68
2023-04-14T14:45:17.368Z,19.90
2023-04-14T14:47:49.126Z,19.77
2023-04-14T14:50:19.413Z,19.44
2023-04-14T14:52:49.169Z,19.39
2023-04-14T14:55:18.871Z,19.73
2023-04-14T14:57:48.714Z,19.85
2023-04-14T15:00:19.566Z,20.60
2023-04-14T15:02:49.737Z,20.66
2023-04-14T15:05:19.561Z,20.45
2023-04-14T15:07:49.661Z,20.33
2023-04-14T15:10:20.935Z,20.21
2023-04-14T15:12:50.836Z,19.56
2023-04-14T15:15:20.840Z,19.23
2023-04-14T15:17:51.141Z,18.68
2023-04-14T15:20:21.360Z,18.31
2023-04-14T15:22:51.459Z,18.44
2023-04-14T15:25:21.672Z,18.57
2023-04-14T15:27:52.906Z,18.93
2023-04-14T15:30:23.793Z,19.23
2023-04-14T15:32:53.693Z,19.74
2023-04-14T15:35:24.188Z,19.80
2023-04-14T15:37:54.021Z,19.40
2023-04-14T15:40:24.165Z,18.88
2023-04-14T15:42:54.602Z,18.37
2023-04-14T15:45:27.057Z,17.83
2023-04-14T15:47:56.800Z,17.76
2023-04-14T15:50:26.666Z,17.79
2023-04-14T15:52:58.036Z,17.61
2023-04-14T15:55:28.828Z,17.62
2023-04-14T15:57:58.744Z,17.52
2023-04-14T16:00:28.640Z,17.37
2023-04-14T16:02:58.540Z,16.88
2023-04-14T16:05:28.563Z,16.88
2023-04-14T16:07:58.377Z,17.09
2023-04-14T16:10:29.252Z,17.15
2023-04-14T16:12:59.118Z,17.00
2023-04-14T16:15:28.997Z,17.22
2023-04-14T16:17:58.855Z,17.17
2023-04-14T16:20:28.509Z,17.17
2023-04-14T16:22:58.667Z,16.95
2023-04-14T16:25:28.898Z,16.95
2023-04-14T16:27:58.792Z,16.81
2023-04-14T16:30:28.597Z,16.82
2023-04-14T16:32:58.538Z,16.59
2023-04-14T16:35:28.630Z,16.48
2023-04-14T16:37:59.348Z,16.38
2023-04-14T16:40:29.319Z,16.45
2023-04-14T16:42:59.201Z,16.41
2023-04-14T16:45:30.649Z,16.64
2023-04-14T16:48:00.472Z,16.70
2023-04-14T16:50:31.713Z,17.09
2023-04-14T16:53:01.651Z,17.43
2023-04-14T16:55:33.850Z,17.87
2023-04-14T16:58:03.829Z,18.34
2023-04-14T17:00:33.476Z,18.39
2023-04-14T17:03:03.446Z,18.25
2023-04-14T17:05:33.784Z,18.50
2023-04-14T17:08:05.020Z,17.95
2023-04-14T17:10:34.511Z,18.67
2023-04-14T17:13:04.695Z,18.13
2023-04-14T17:15:34.608Z,18.13
2023-04-14T17:18:05.304Z,17.94
2023-04-14T17:20:34.994Z,17.65
2023-04-14T17:23:05.007Z,17.14
2023-04-14T17:25:37.402Z,17.20
2023-04-14T17:28:07.125Z,17.26
2023-04-14T17:30:38.417Z,17.17
2023-04-14T17:33:09.504Z,16.74
2023-04-14T17:35:39.382Z,16.87
2023-04-14T17:38:11.315Z,17.05
2023-04-14T17:40:41.189Z,17.01
2023-04-14T17:43:11.501Z,17.15
2023-04-14T17:45:43.012Z,17.25
2023-04-14T17:48:12.690Z,17.29
2023-04-14T17:50:42.559Z,17.04
2023-04-14T17:53:14.793Z,16.88
2023-04-14T17:55:44.903Z,16.43
2023-04-14T17:58:15.582Z,16.13
2023-04-14T18:00:45.564Z,15.98
2023-04-14T18:03:16.382Z,15.79
2023-04-14T18:05:46.361Z,15.74
2023-04-14T18:08:16.047Z,15.59
2023-04-14T18:10:46.044Z,15.67
2023-04-14T18:13:15.905Z,15.55
2023-04-14T18:15:45.622Z,15.60
2023-04-14T18:18:16.670Z,15.50
2023-04-14T18:20:46.946Z,15.58
2023-04-14T18:23:17.464Z,15.38
2023-04-14T18:28:18.820Z,15.28
2023-04-14T18:30:54.319Z,15.03
2023-04-14T18:33:23.983Z,15.09
2023-04-14T18:35:55.257Z,14.89
2023-04-14T18:38:26.002Z,15.04
2023-04-14T18:40:57.347Z,14.77
2023-04-14T18:43:27.224Z,14.71
2023-04-14T18:45:57.245Z,14.71
2023-04-14T18:48:27.823Z,14.67
2023-04-14T18:51:03.728Z,14.75
2023-04-14T18:53:33.297Z,14.46
2023-04-14T18:56:03.198Z,14.67
2023-04-14T18:58:33.371Z,14.72
2023-04-14T19:01:03.822Z,14.58
2023-04-14T19:03:33.798Z,14.50
2023-04-14T19:06:03.882Z,14.55
2023-04-14T19:08:33.679Z,14.55
2023-04-14T19:11:03.496Z,14.57
2023-04-14T19:13:33.316Z,14.55
2023-04-14T19:16:08.842Z,14.74
2023-04-14T19:18:39.644Z,14.54
2023-04-14T19:21:10.405Z,14.65
2023-04-14T19:23:40.894Z,14.76
2023-04-14T19:26:13.477Z,14.75
2023-04-14T19:28:43.079Z,14.65
2023-04-14T19:31:13.690Z,14.80
2023-04-14T19:33:43.589Z,14.66
2023-04-14T19:36:17.175Z,14.53
2023-04-14T19:38:47.160Z,14.71
2023-04-14T19:41:16.944Z,14.57
2023-04-14T19:43:46.848Z,14.35
2023-04-14T19:46:16.730Z,14.46
2023-04-14T19:48:46.754Z,14.28
2023-04-14T19:51:16.675Z,14.46
2023-04-14T19:53:47.997Z,14.00
2023-04-14T19:56:17.628Z,14.00
2023-04-14T19:58:47.437Z,13.94
2023-04-14T20:01:16.978Z,14.00
2023-04-14T20:04:06.917Z,14.06
2023-04-14T20:06:19.440Z,13.97
2023-04-14T20:08:49.519Z,14.04
2023-04-14T20:11:20.317Z,13.71
2023-04-14T20:13:50.171Z,13.87
2023-04-14T20:16:20.332Z,13.75
2023-04-14T20:18:50.587Z,13.71
2023-04-14T20:21:20.412Z,13.72
2023-04-14T20:23:50.348Z,13.72
2023-04-14T20:26:20.514Z,13.80
2023-04-14T20:28:50.366Z,13.62
2023-04-14T20:31:22.405Z,13.57
2023-04-14T20:33:51.957Z,13.41
2023-04-14T20:36:22.173Z,13.20
2023-04-14T20:38:51.683Z,13.34
2023-04-14T20:41:21.582Z,13.29
2023-04-14T20:43:51.356Z,13.07
2023-04-14T20:46:22.004Z,13.23
2023-04-14T20:48:52.217Z,13.16
2023-04-14T20:51:22.675Z,13.15
2023-04-14T20:53:52.556Z,12.77
2023-04-14T20:56:22.566Z,12.85
2023-04-14T20:58:52.421Z,12.83
2023-04-14T21:01:23.861Z,12.81
2023-04-14T21:03:54.454Z,12.65
2023-04-14T21:06:25.104Z,12.31
2023-04-14T21:08:54.921Z,12.55
2023-04-14T21:11:24.750Z,12.59
2023-04-14T21:15:44.488Z,12.51
2023-04-14T21:16:26.230Z,12.39
2023-04-14T21:18:56.644Z,12.31
2023-04-14T21:21:27.112Z,12.20
2023-04-14T21:23:56.962Z,11.97
2023-04-14T21:26:28.396Z,11.97
2023-04-14T21:28:58.484Z,12.09
2023-04-14T21:31:28.776Z,11.86
2023-04-14T21:33:58.656Z,11.87
2023-04-14T21:36:28.843Z,11.82
2023-04-14T21:38:58.816Z,11.61
2023-04-14T21:41:28.599Z,11.81
2023-04-14T21:43:58.560Z,11.64
2023-04-14T21:46:28.608Z,11.63
2023-04-14T21:48:58.414Z,11.51
2023-04-14T21:51:28.418Z,11.56
2023-04-14T21:53:58.544Z,11.45
2023-04-14T21:56:28.070Z,11.57
2023-04-14T21:58:57.942Z,11.44
2023-04-14T22:01:28.181Z,11.64
2023-04-14T22:03:58.522Z,11.35
2023-04-14T22:06:28.618Z,11.25
2023-04-14T22:08:58.420Z,11.18
2023-04-14T22:11:30.079Z,11.11
2023-04-14T22:14:01.816Z,11.06
2023-04-14T22:16:31.665Z,11.02
2023-04-14T22:19:02.364Z,11.07
2023-04-14T22:21:32.507Z,10.92
2023-04-14T22:24:02.659Z,10.94
2023-04-14T22:26:32.844Z,11.05
2023-04-14T22:29:02.930Z,10.91
2023-04-14T22:31:32.937Z,10.93
2023-04-14T22:34:02.804Z,10.57
2023-04-14T22:36:32.863Z,10.67
2023-04-14T22:39:02.991Z,10.68
2023-04-14T22:41:33.414Z,10.54
2023-04-14T22:44:05.179Z,10.49
2023-04-14T22:46:35.528Z,10.41
2023-04-14T22:49:05.416Z,10.31
2023-04-14T22:51:35.305Z,10.25
2023-04-14T22:54:06.622Z,10.22
2023-04-14T22:56:37.200Z,10.20
2023-04-14T22:59:07.020Z,10.18
2023-04-14T23:01:37.335Z,10.46
2023-04-14T23:04:08.641Z,10.46
2023-04-14T23:06:38.757Z,10.21
2023-04-14T23:09:08.569Z,10.18
2023-04-14T23:11:39.013Z,10.28
2023-04-14T23:14:09.875Z,10.38
2023-04-14T23:16:39.693Z,10.25
2023-04-14T23:19:09.690Z,10.32
2023-04-14T23:21:39.698Z,10.09
2023-04-14T23:24:10.043Z,10.16
2023-04-14T23:26:39.883Z,10.07
2023-04-14T23:29:09.736Z,10.10
2023-04-14T23:31:39.602Z,10.02
2023-04-14T23:34:10.990Z,10.10
2023-04-14T23:36:41.586Z,10.23
2023-04-14T23:39:11.659Z,10.12
2023-04-14T23:41:41.788Z,10.18
2023-04-14T23:44:13.303Z,10.14
2023-04-14T23:46:43.187Z,10.22
2023-04-14T23:49:24.638Z,10.06
2023-04-14T23:51:44.543Z,10.25
2023-04-14T23:54:14.335Z,10.23
2023-04-14T23:56:44.163Z,10.23
2023-04-14T23:59:13.970Z,10.33
